Tracer — PHAC — position and weather

sailwx.info

Track history (hours):
 
Tides and Currents Weather Stations Pressure Air Temp Water Temp Dewpoint Dewpoint Depression Visibility Wind Speed Wind Dir Waves Ship Positions

Tracer

Last reported at 2018-Feb-21 20:35 UTC. Time now 2018-Feb-21 21:33 UTC.
Position N 35°57' W 005°37'.

Length 101 m; beam 20 m.

Type: Cargo ship. MMSI: 245949000.

Date/timePositionNaut miles runAvg speedWind from/ knotsBaromVisibWave heightAir tempDewpointWater temp
2018-Feb-21 20:35N 35°57' W 005°37'211.5
2018-Feb-21 20:24N 35°57' W 005°34'411.1
2018-Feb-21 20:00N 35°55' W 005°30'  
2018-Feb-18 09:43N 38°48' W 010°06'516.0
2018-Feb-18 09:22N 38°54' W 010°07'616.2
2018-Feb-18 09:00N 38°60' W 010°07'816.2
2018-Feb-18 08:30N 39°08' W 010°07'815.9
2018-Feb-18 08:00N 39°16' W 010°08'815.6
2018-Feb-18 07:30N 39°24' W 010°08'915.4
2018-Feb-18 06:54N 39°33' W 010°08'10515.2
2018-Feb-18 00:00N 41°18' W 010°06'49015.1 020 / 201028.010.8 15.010.6
2018-Feb-16 15:28N 48°53' W 005°48'12413.7
2018-Feb-16 06:25N 49°55' W 003°04'512.2
2018-Feb-16 06:00N 49°58' W 002°57'612.6
2018-Feb-16 05:30N 49°59' W 002°48'3614.9
2018-Feb-16 03:05N 50°09' W 001°54'116.7
2018-Feb-16 03:00N 50°09' W 001°52'817.0
2018-Feb-16 02:30N 50°11' W 001°39'917.1
2018-Feb-16 01:59N 50°13' W 001°25'4415.1
2018-Feb-15 23:04N 50°26' W 000°19'113.5
2018-Feb-15 23:00N 50°27' W 000°18'612.8
2018-Feb-15 22:30N 50°28' W 000°08'612.4
2018-Feb-15 22:00N 50°30' E 000°01'612.3
2018-Feb-15 21:30N 50°31' E 000°10'612.2
2018-Feb-15 21:00N 50°33' E 000°20'612.3
2018-Feb-15 20:30N 50°35' E 000°29'612.9
2018-Feb-15 20:00N 50°37' E 000°38'713.9
2018-Feb-15 19:30N 50°42' E 000°47'714.6
2018-Feb-15 19:00N 50°46' E 000°56'815.5
2018-Feb-15 18:30N 50°52' E 001°05'915.9
2018-Feb-15 17:54N 50°58' E 001°16'716.5
2018-Feb-15 17:30N 51°02' E 001°24'815.8
2018-Feb-15 17:00N 51°07' E 001°34'815.1
2018-Feb-15 16:30N 51°12' E 001°43'714.6
2018-Feb-15 16:00N 51°18' E 001°50'714.1
2018-Feb-15 15:30N 51°23' E 001°57'612.3
2018-Feb-15 15:01N 51°23' E 002°07'714.5
2018-Feb-15 14:30N 51°21' E 002°18'713.3
2018-Feb-15 14:00N 51°23' E 002°28'713.4
2018-Feb-15 13:30N 51°22' E 002°39'612.5
2018-Feb-15 13:00N 51°22' E 002°49'712.8
2018-Feb-15 12:29N 51°24' E 002°59'611.8
2018-Feb-15 12:00N 51°24' E 003°08'612.0
2018-Feb-15 11:30N 51°25' E 003°18'1411.9
2018-Feb-15 10:20N 51°26' E 003°40'412.9
2018-Feb-15 10:00N 51°24' E 003°45'1 1.8
2018-Feb-15 09:30N 51°23' E 003°47'0 0.1
2018-Feb-15 09:00N 51°23' E 003°47'0 0.1
2018-Feb-15 08:30N 51°23' E 003°47'0 0.1
2018-Feb-15 08:00N 51°23' E 003°46'0 0.1
2018-Feb-15 07:30N 51°23' E 003°46'0 0.0
2018-Feb-15 07:00N 51°23' E 003°46'0 0.0
2018-Feb-15 06:30N 51°23' E 003°46'0 0.0
2018-Feb-15 06:00N 51°23' E 003°46'0 0.0
2018-Feb-15 05:30N 51°23' E 003°46'0 0.0
2018-Feb-15 05:00N 51°23' E 003°46'0 0.0
2018-Feb-15 04:30N 51°23' E 003°46'0 0.0
2018-Feb-15 03:59N 51°23' E 003°46'0 0.1
2018-Feb-15 03:30N 51°23' E 003°46'0 0.1
2018-Feb-15 03:00N 51°23' E 003°46'0 0.1
2018-Feb-15 02:30N 51°23' E 003°46'0 0.0
2018-Feb-15 02:00N 51°23' E 003°47'0 0.3
2018-Feb-15 01:30N 51°23' E 003°47'0 0.1
2018-Feb-15 01:00N 51°23' E 003°47'0 0.0
2018-Feb-15 00:30N 51°23' E 003°47'0 0.0
2018-Feb-15 00:00N 51°23' E 003°47'0 0.0
2018-Feb-14 23:30N 51°23' E 003°47'0 0.3
2018-Feb-14 23:00N 51°23' E 003°47'0 0.2
2018-Feb-14 22:30N 51°24' E 003°47'0 0.1
2018-Feb-14 22:00N 51°24' E 003°46'0 0.0
2018-Feb-14 21:30N 51°24' E 003°46'0 0.1
2018-Feb-14 21:00N 51°24' E 003°46'2 4.5
2018-Feb-14 20:30N 51°25' E 003°43'611.7
2018-Feb-14 20:00N 51°26' E 003°34'713.0
2018-Feb-14 19:30N 51°31' E 003°26'611.6
2018-Feb-14 18:58N 51°36' E 003°22'612.0
2018-Feb-14 18:30N 51°41' E 003°17'4 8.0
2018-Feb-14 18:00N 51°45' E 003°14'16511.7
2018-Feb-14 03:54N 54°12' E 005°16'513.5
2018-Feb-14 03:30N 54°15' E 005°24'713.7
2018-Feb-14 02:57N 54°19' E 005°35'5713.3
2018-Feb-13 22:40N 54°52' E 006°56'212.8
2018-Feb-13 22:29N 54°53' E 006°59'612.9
2018-Feb-13 22:00N 54°57' E 007°08'612.8
2018-Feb-13 21:30N 55°01' E 007°17'613.0
2018-Feb-13 21:01N 55°04' E 007°26'713.2
2018-Feb-13 20:30N 55°08' E 007°35'713.5
2018-Feb-13 20:00N 55°12' E 007°45'713.6
2018-Feb-13 19:30N 55°17' E 007°54'713.6
2018-Feb-13 19:00N 55°21' E 008°04'612.7
2018-Feb-13 18:30N 55°25' E 008°12'612.6
2018-Feb-13 18:00N 55°29' E 008°21'4 7.3
2018-Feb-13 17:29N 55°27' E 008°27'0 0.0
2018-Feb-13 16:59N 55°27' E 008°27'0 0.0
2018-Feb-13 16:29N 55°27' E 008°27'0 0.0
2018-Feb-13 15:59N 55°27' E 008°27'0 0.0
2018-Feb-13 15:11N 55°27' E 008°27'0 0.0
2018-Feb-13 14:59N 55°27' E 008°27'0 0.0
2018-Feb-13 14:10N 55°27' E 008°27'0 0.0
2018-Feb-13 13:55N 55°27' E 008°27'0 0.0
2018-Feb-13 13:16N 55°27' E 008°27'0 0.0
2018-Feb-13 12:58N 55°27' E 008°27'0 0.0
2018-Feb-13 12:28N 55°27' E 008°27'0 0.0
2018-Feb-13 11:58N 55°27' E 008°27'0 0.0
2018-Feb-13 11:28N 55°27' E 008°27'0 0.0
2018-Feb-13 10:58N 55°27' E 008°27'0 0.0
2018-Feb-13 10:28N 55°27' E 008°27'0 0.0
2018-Feb-13 09:58N 55°27' E 008°27'0 0.0
2018-Feb-13 09:28N 55°27' E 008°27'0 0.0
2018-Feb-13 08:19N 55°27' E 008°27'0 0.0
2018-Feb-13 07:58N 55°27' E 008°27'0 0.0
2018-Feb-13 07:28N 55°27' E 008°27'0 0.0
2018-Feb-13 06:58N 55°27' E 008°27'0 0.0
2018-Feb-13 06:13N 55°27' E 008°27'0 0.0
2018-Feb-13 05:46N 55°27' E 008°27'0 0.0
2018-Feb-13 05:19N 55°27' E 008°27'0 0.0
2018-Feb-13 04:46N 55°27' E 008°27'0 0.0
2018-Feb-13 04:16N 55°27' E 008°27'0 0.0
2018-Feb-13 03:49N 55°27' E 008°27'0 0.0
2018-Feb-13 03:22N 55°27' E 008°27'0 0.0
2018-Feb-13 02:52N 55°27' E 008°27'0 0.0
2018-Feb-13 02:22N 55°27' E 008°27'0 0.0
2018-Feb-13 01:52N 55°27' E 008°27'0 0.0
2018-Feb-13 00:49N 55°27' E 008°27'0 0.0
2018-Feb-13 00:22N 55°27' E 008°27'0 0.0
2018-Feb-12 23:37N 55°27' E 008°27'0 0.0
2018-Feb-12 23:19N 55°27' E 008°27'0 0.0
2018-Feb-12 22:52N 55°27' E 008°27'0 0.0
2018-Feb-12 22:25N 55°27' E 008°27'0 0.0
2018-Feb-12 21:55N 55°27' E 008°27'0 0.0
2018-Feb-12 21:25N 55°27' E 008°27'0 0.0
2018-Feb-12 20:55N 55°27' E 008°27'0 0.0
2018-Feb-12 20:22N 55°27' E 008°27'0 0.0
2018-Feb-12 19:55N 55°27' E 008°27'0 0.0
2018-Feb-12 19:25N 55°27' E 008°27'0 0.0
2018-Feb-12 18:55N 55°27' E 008°27'0 0.0
2018-Feb-12 18:25N 55°27' E 008°27'0 0.0
2018-Feb-12 17:52N 55°27' E 008°27'0 0.0
2018-Feb-12 17:28N 55°27' E 008°27'0 0.0
2018-Feb-12 16:58N 55°27' E 008°27'0 0.0
2018-Feb-12 16:28N 55°27' E 008°27'0 0.0
2018-Feb-12 15:52N 55°27' E 008°27'0 0.0
2018-Feb-12 15:13N 55°27' E 008°27'0 0.0
2018-Feb-12 14:58N 55°27' E 008°27'0 0.0
2018-Feb-12 14:28N 55°27' E 008°27'0 0.0
2018-Feb-12 13:58N 55°27' E 008°27'0 0.0
2018-Feb-12 13:13N 55°27' E 008°27'0 0.0
2018-Feb-12 12:58N 55°27' E 008°27'0 0.0
2018-Feb-12 12:28N 55°27' E 008°27'0 0.0
2018-Feb-12 11:46N 55°27' E 008°27'0 0.0
2018-Feb-12 11:28N 55°27' E 008°27'0 0.0
2018-Feb-12 10:58N 55°27' E 008°27'0 0.2
2018-Feb-12 10:21N 55°27' E 008°28'0 0.6
2018-Feb-12 10:00N 55°27' E 008°28'3 5.3
2018-Feb-12 09:30N 55°29' E 008°24'611.1
2018-Feb-12 09:00N 55°26' E 008°15'612.0
2018-Feb-12 08:30N 55°21' E 008°10'611.9
2018-Feb-12 07:59N 55°15' E 008°06'2011.1
2018-Feb-12 06:11N 54°56' E 007°58'6010.3
2018-Feb-12 00:22N 53°59' E 008°29'812.3
2018-Feb-11 23:44N 53°55' E 008°40'314.7
2018-Feb-11 23:30N 53°52' E 008°44'612.3
2018-Feb-11 23:01N 53°51' E 008°54'611.7
2018-Feb-11 22:30N 53°52' E 009°03'4 7.3
2018-Feb-11 22:01N 53°54' E 009°09'0 0.0
2018-Feb-11 21:30N 53°54' E 009°09'0 0.4
2018-Feb-11 21:01N 53°54' E 009°09'  
Track history (hours):
 
Tides and Currents Weather Stations Pressure Air Temp Water Temp Dewpoint Dewpoint Depression Visibility Wind Speed Wind Dir Waves Ship Positions

Tracer

Last reported at 2018-Feb-21 20:35 UTC. Time now 2018-Feb-21 21:33 UTC.
Position N 35°57' W 005°37'.

Length 101 m; beam 20 m.

Type: Cargo ship. MMSI: 245949000.

Date/timePositionNaut miles runAvg speedWind from/ knotsBaromVisibWave heightAir tempDewpointWater temp
2018-Feb-21 20:35N 35°57' W 005°37'211.5
2018-Feb-21 20:24N 35°57' W 005°34'411.1
2018-Feb-21 20:00N 35°55' W 005°30'  
2018-Feb-18 09:43N 38°48' W 010°06'516.0
2018-Feb-18 09:22N 38°54' W 010°07'616.2
2018-Feb-18 09:00N 38°60' W 010°07'816.2
2018-Feb-18 08:30N 39°08' W 010°07'815.9
2018-Feb-18 08:00N 39°16' W 010°08'815.6
2018-Feb-18 07:30N 39°24' W 010°08'915.4
2018-Feb-18 06:54N 39°33' W 010°08'10515.2
2018-Feb-18 00:00N 41°18' W 010°06'49015.1 020 / 201028.010.8 15.010.6
2018-Feb-16 15:28N 48°53' W 005°48'12413.7
2018-Feb-16 06:25N 49°55' W 003°04'512.2
2018-Feb-16 06:00N 49°58' W 002°57'612.6
2018-Feb-16 05:30N 49°59' W 002°48'3614.9
2018-Feb-16 03:05N 50°09' W 001°54'116.7
2018-Feb-16 03:00N 50°09' W 001°52'817.0
2018-Feb-16 02:30N 50°11' W 001°39'917.1
2018-Feb-16 01:59N 50°13' W 001°25'4415.1
2018-Feb-15 23:04N 50°26' W 000°19'113.5
2018-Feb-15 23:00N 50°27' W 000°18'612.8
2018-Feb-15 22:30N 50°28' W 000°08'612.4
2018-Feb-15 22:00N 50°30' E 000°01'612.3
2018-Feb-15 21:30N 50°31' E 000°10'612.2
2018-Feb-15 21:00N 50°33' E 000°20'612.3
2018-Feb-15 20:30N 50°35' E 000°29'612.9
2018-Feb-15 20:00N 50°37' E 000°38'713.9
2018-Feb-15 19:30N 50°42' E 000°47'714.6
2018-Feb-15 19:00N 50°46' E 000°56'815.5
2018-Feb-15 18:30N 50°52' E 001°05'915.9
2018-Feb-15 17:54N 50°58' E 001°16'716.5
2018-Feb-15 17:30N 51°02' E 001°24'815.8
2018-Feb-15 17:00N 51°07' E 001°34'815.1
2018-Feb-15 16:30N 51°12' E 001°43'714.6
2018-Feb-15 16:00N 51°18' E 001°50'714.1
2018-Feb-15 15:30N 51°23' E 001°57'612.3
2018-Feb-15 15:01N 51°23' E 002°07'714.5
2018-Feb-15 14:30N 51°21' E 002°18'713.3
2018-Feb-15 14:00N 51°23' E 002°28'713.4
2018-Feb-15 13:30N 51°22' E 002°39'612.5
2018-Feb-15 13:00N 51°22' E 002°49'712.8
2018-Feb-15 12:29N 51°24' E 002°59'611.8
2018-Feb-15 12:00N 51°24' E 003°08'612.0
2018-Feb-15 11:30N 51°25' E 003°18'1411.9
2018-Feb-15 10:20N 51°26' E 003°40'412.9
2018-Feb-15 10:00N 51°24' E 003°45'1 1.8
2018-Feb-15 09:30N 51°23' E 003°47'0 0.1
2018-Feb-15 09:00N 51°23' E 003°47'0 0.1
2018-Feb-15 08:30N 51°23' E 003°47'0 0.1
2018-Feb-15 08:00N 51°23' E 003°46'0 0.1
2018-Feb-15 07:30N 51°23' E 003°46'0 0.0
2018-Feb-15 07:00N 51°23' E 003°46'0 0.0
2018-Feb-15 06:30N 51°23' E 003°46'0 0.0
2018-Feb-15 06:00N 51°23' E 003°46'0 0.0
2018-Feb-15 05:30N 51°23' E 003°46'0 0.0
2018-Feb-15 05:00N 51°23' E 003°46'0 0.0
2018-Feb-15 04:30N 51°23' E 003°46'0 0.0
2018-Feb-15 03:59N 51°23' E 003°46'0 0.1
2018-Feb-15 03:30N 51°23' E 003°46'0 0.1
2018-Feb-15 03:00N 51°23' E 003°46'0 0.1
2018-Feb-15 02:30N 51°23' E 003°46'0 0.0
2018-Feb-15 02:00N 51°23' E 003°47'0 0.3
2018-Feb-15 01:30N 51°23' E 003°47'0 0.1
2018-Feb-15 01:00N 51°23' E 003°47'0 0.0
2018-Feb-15 00:30N 51°23' E 003°47'0 0.0
2018-Feb-15 00:00N 51°23' E 003°47'0 0.0
2018-Feb-14 23:30N 51°23' E 003°47'0 0.3
2018-Feb-14 23:00N 51°23' E 003°47'0 0.2
2018-Feb-14 22:30N 51°24' E 003°47'0 0.1
2018-Feb-14 22:00N 51°24' E 003°46'0 0.0
2018-Feb-14 21:30N 51°24' E 003°46'0 0.1
2018-Feb-14 21:00N 51°24' E 003°46'2 4.5
2018-Feb-14 20:30N 51°25' E 003°43'611.7
2018-Feb-14 20:00N 51°26' E 003°34'713.0
2018-Feb-14 19:30N 51°31' E 003°26'611.6
2018-Feb-14 18:58N 51°36' E 003°22'612.0
2018-Feb-14 18:30N 51°41' E 003°17'4 8.0
2018-Feb-14 18:00N 51°45' E 003°14'16511.7
2018-Feb-14 03:54N 54°12' E 005°16'513.5
2018-Feb-14 03:30N 54°15' E 005°24'713.7
2018-Feb-14 02:57N 54°19' E 005°35'5713.3
2018-Feb-13 22:40N 54°52' E 006°56'212.8
2018-Feb-13 22:29N 54°53' E 006°59'612.9
2018-Feb-13 22:00N 54°57' E 007°08'612.8
2018-Feb-13 21:30N 55°01' E 007°17'613.0
2018-Feb-13 21:01N 55°04' E 007°26'713.2
2018-Feb-13 20:30N 55°08' E 007°35'713.5
2018-Feb-13 20:00N 55°12' E 007°45'713.6
2018-Feb-13 19:30N 55°17' E 007°54'713.6
2018-Feb-13 19:00N 55°21' E 008°04'612.7
2018-Feb-13 18:30N 55°25' E 008°12'612.6
2018-Feb-13 18:00N 55°29' E 008°21'4 7.3
2018-Feb-13 17:29N 55°27' E 008°27'0 0.0
2018-Feb-13 16:59N 55°27' E 008°27'0 0.0
2018-Feb-13 16:29N 55°27' E 008°27'0 0.0
2018-Feb-13 15:59N 55°27' E 008°27'0 0.0
2018-Feb-13 15:11N 55°27' E 008°27'0 0.0
2018-Feb-13 14:59N 55°27' E 008°27'0 0.0
2018-Feb-13 14:10N 55°27' E 008°27'0 0.0
2018-Feb-13 13:55N 55°27' E 008°27'0 0.0
2018-Feb-13 13:16N 55°27' E 008°27'0 0.0
2018-Feb-13 12:58N 55°27' E 008°27'0 0.0
2018-Feb-13 12:28N 55°27' E 008°27'0 0.0
2018-Feb-13 11:58N 55°27' E 008°27'0 0.0
2018-Feb-13 11:28N 55°27' E 008°27'0 0.0
2018-Feb-13 10:58N 55°27' E 008°27'0 0.0
2018-Feb-13 10:28N 55°27' E 008°27'0 0.0
2018-Feb-13 09:58N 55°27' E 008°27'0 0.0
2018-Feb-13 09:28N 55°27' E 008°27'0 0.0
2018-Feb-13 08:19N 55°27' E 008°27'0 0.0
2018-Feb-13 07:58N 55°27' E 008°27'0 0.0
2018-Feb-13 07:28N 55°27' E 008°27'0 0.0
2018-Feb-13 06:58N 55°27' E 008°27'0 0.0
2018-Feb-13 06:13N 55°27' E 008°27'0 0.0
2018-Feb-13 05:46N 55°27' E 008°27'0 0.0
2018-Feb-13 05:19N 55°27' E 008°27'0 0.0
2018-Feb-13 04:46N 55°27' E 008°27'0 0.0
2018-Feb-13 04:16N 55°27' E 008°27'0 0.0
2018-Feb-13 03:49N 55°27' E 008°27'0 0.0
2018-Feb-13 03:22N 55°27' E 008°27'0 0.0
2018-Feb-13 02:52N 55°27' E 008°27'0 0.0
2018-Feb-13 02:22N 55°27' E 008°27'0 0.0
2018-Feb-13 01:52N 55°27' E 008°27'0 0.0
2018-Feb-13 00:49N 55°27' E 008°27'0 0.0
2018-Feb-13 00:22N 55°27' E 008°27'0 0.0
2018-Feb-12 23:37N 55°27' E 008°27'0 0.0
2018-Feb-12 23:19N 55°27' E 008°27'0 0.0
2018-Feb-12 22:52N 55°27' E 008°27'0 0.0
2018-Feb-12 22:25N 55°27' E 008°27'0 0.0
2018-Feb-12 21:55N 55°27' E 008°27'0 0.0
2018-Feb-12 21:25N 55°27' E 008°27'0 0.0
2018-Feb-12 20:55N 55°27' E 008°27'0 0.0
2018-Feb-12 20:22N 55°27' E 008°27'0 0.0
2018-Feb-12 19:55N 55°27' E 008°27'0 0.0
2018-Feb-12 19:25N 55°27' E 008°27'0 0.0
2018-Feb-12 18:55N 55°27' E 008°27'0 0.0
2018-Feb-12 18:25N 55°27' E 008°27'0 0.0
2018-Feb-12 17:52N 55°27' E 008°27'0 0.0
2018-Feb-12 17:28N 55°27' E 008°27'0 0.0
2018-Feb-12 16:58N 55°27' E 008°27'0 0.0
2018-Feb-12 16:28N 55°27' E 008°27'0 0.0
2018-Feb-12 15:52N 55°27' E 008°27'0 0.0
2018-Feb-12 15:13N 55°27' E 008°27'0 0.0
2018-Feb-12 14:58N 55°27' E 008°27'0 0.0
2018-Feb-12 14:28N 55°27' E 008°27'0 0.0
2018-Feb-12 13:58N 55°27' E 008°27'0 0.0
2018-Feb-12 13:13N 55°27' E 008°27'0 0.0
2018-Feb-12 12:58N 55°27' E 008°27'0 0.0
2018-Feb-12 12:28N 55°27' E 008°27'0 0.0
2018-Feb-12 11:46N 55°27' E 008°27'0 0.0
2018-Feb-12 11:28N 55°27' E 008°27'0 0.0
2018-Feb-12 10:58N 55°27' E 008°27'0 0.2
2018-Feb-12 10:21N 55°27' E 008°28'0 0.6
2018-Feb-12 10:00N 55°27' E 008°28'3 5.3
2018-Feb-12 09:30N 55°29' E 008°24'611.1
2018-Feb-12 09:00N 55°26' E 008°15'612.0
2018-Feb-12 08:30N 55°21' E 008°10'611.9
2018-Feb-12 07:59N 55°15' E 008°06'2011.1
2018-Feb-12 06:11N 54°56' E 007°58'6010.3
2018-Feb-12 00:22N 53°59' E 008°29'812.3
2018-Feb-11 23:44N 53°55' E 008°40'314.7
2018-Feb-11 23:30N 53°52' E 008°44'612.3
2018-Feb-11 23:01N 53°51' E 008°54'611.7
2018-Feb-11 22:30N 53°52' E 009°03'4 7.3
2018-Feb-11 22:01N 53°54' E 009°09'0 0.0
2018-Feb-11 21:30N 53°54' E 009°09'0 0.4
2018-Feb-11 21:01N 53°54' E 009°09'  

Dump ship's entire track history